sensor_id;sensor_type;location;lat;lon;timestamp;P1;durP1;ratioP1;P2;durP2;ratioP2
57820;SDS011;43649;49.474;8.466;2022-08-01T00:00:16;1.88;;;1.42;;
57820;SDS011;43649;49.474;8.466;2022-08-01T00:02:41;5.93;;;1.75;;
57820;SDS011;43649;49.474;8.466;2022-08-01T00:05:07;2.08;;;1.08;;
57820;SDS011;43649;49.474;8.466;2022-08-01T00:07:35;3.25;;;1.33;;
57820;SDS011;43649;49.474;8.466;2022-08-01T00:10:02;1.48;;;1.38;;
57820;SDS011;43649;49.474;8.466;2022-08-01T00:12:28;1.70;;;1.30;;
57820;SDS011;43649;49.474;8.466;2022-08-01T00:14:53;1.40;;;1.27;;
57820;SDS011;43649;49.474;8.466;2022-08-01T00:17:19;1.13;;;1.05;;
57820;SDS011;43649;49.474;8.466;2022-08-01T00:19:44;1.92;;;1.00;;
57820;SDS011;43649;49.474;8.466;2022-08-01T00:22:09;0.80;;;0.80;;
57820;SDS011;43649;49.474;8.466;2022-08-01T00:24:36;0.90;;;0.90;;
57820;SDS011;43649;49.474;8.466;2022-08-01T00:27:01;1.23;;;0.80;;
57820;SDS011;43649;49.474;8.466;2022-08-01T00:29:27;1.20;;;1.05;;
57820;SDS011;43649;49.474;8.466;2022-08-01T00:31:52;1.75;;;1.20;;
57820;SDS011;43649;49.474;8.466;2022-08-01T00:34:18;0.88;;;0.88;;
57820;SDS011;43649;49.474;8.466;2022-08-01T00:36:43;1.15;;;0.80;;
57820;SDS011;43649;49.474;8.466;2022-08-01T00:39:09;1.08;;;0.90;;
57820;SDS011;43649;49.474;8.466;2022-08-01T00:41:35;2.65;;;1.10;;
57820;SDS011;43649;49.474;8.466;2022-08-01T00:44:02;2.00;;;1.83;;
57820;SDS011;43649;49.474;8.466;2022-08-01T00:46:28;2.13;;;1.17;;
57820;SDS011;43649;49.474;8.466;2022-08-01T00:48:54;1.90;;;1.25;;
57820;SDS011;43649;49.474;8.466;2022-08-01T00:51:19;5.32;;;1.27;;
57820;SDS011;43649;49.474;8.466;2022-08-01T00:53:45;2.08;;;0.95;;
57820;SDS011;43649;49.474;8.466;2022-08-01T00:56:10;3.22;;;1.10;;
57820;SDS011;43649;49.474;8.466;2022-08-01T00:58:37;2.47;;;0.88;;
57820;SDS011;43649;49.474;8.466;2022-08-01T01:01:03;1.48;;;1.40;;
57820;SDS011;43649;49.474;8.466;2022-08-01T01:03:28;1.02;;;0.85;;
57820;SDS011;43649;49.474;8.466;2022-08-01T01:05:56;1.60;;;0.90;;
57820;SDS011;43649;49.474;8.466;2022-08-01T01:08:36;0.80;;;0.80;;
57820;SDS011;43649;49.474;8.466;2022-08-01T01:11:09;0.70;;;0.70;;
57820;SDS011;43649;49.474;8.466;2022-08-01T01:13:41;2.53;;;0.70;;
57820;SDS011;43649;49.474;8.466;2022-08-01T01:16:11;0.90;;;0.65;;
57820;SDS011;43649;49.474;8.466;2022-08-01T01:18:40;3.80;;;0.82;;
57820;SDS011;43649;49.474;8.466;2022-08-01T01:21:13;1.33;;;0.60;;
57820;SDS011;43649;49.474;8.466;2022-08-01T01:24:03;4.22;;;0.95;;
57820;SDS011;43649;49.474;8.466;2022-08-01T01:26:40;0.68;;;0.68;;
57820;SDS011;43649;49.474;8.466;2022-08-01T01:29:13;1.55;;;0.82;;
57820;SDS011;43649;49.474;8.466;2022-08-01T01:31:42;0.80;;;0.68;;
57820;SDS011;43649;49.474;8.466;2022-08-01T01:34:11;0.88;;;0.88;;
57820;SDS011;43649;49.474;8.466;2022-08-01T01:36:38;0.60;;;0.60;;
57820;SDS011;43649;49.474;8.466;2022-08-01T01:39:04;1.15;;;0.95;;
57820;SDS011;43649;49.474;8.466;2022-08-01T01:41:31;1.85;;;1.13;;
57820;SDS011;43649;49.474;8.466;2022-08-01T01:43:57;0.70;;;0.70;;
57820;SDS011;43649;49.474;8.466;2022-08-01T01:46:27;3.50;;;1.20;;
57820;SDS011;43649;49.474;8.466;2022-08-01T01:48:55;0.88;;;0.80;;
57820;SDS011;43649;49.474;8.466;2022-08-01T01:51:22;0.80;;;0.80;;
57820;SDS011;43649;49.474;8.466;2022-08-01T01:53:49;1.40;;;1.08;;
57820;SDS011;43649;49.474;8.466;2022-08-01T01:56:17;2.67;;;0.90;;
57820;SDS011;43649;49.474;8.466;2022-08-01T01:58:44;0.65;;;0.65;;
57820;SDS011;43649;49.474;8.466;2022-08-01T02:01:13;1.85;;;0.80;;
57820;SDS011;43649;49.474;8.466;2022-08-01T02:03:41;0.70;;;0.70;;
57820;SDS011;43649;49.474;8.466;2022-08-01T02:06:08;1.25;;;1.00;;
57820;SDS011;43649;49.474;8.466;2022-08-01T02:08:35;1.40;;;0.80;;
57820;SDS011;43649;49.474;8.466;2022-08-01T02:11:01;0.90;;;0.90;;
57820;SDS011;43649;49.474;8.466;2022-08-01T02:13:28;0.93;;;0.93;;
57820;SDS011;43649;49.474;8.466;2022-08-01T02:15:55;1.70;;;1.25;;
57820;SDS011;43649;49.474;8.466;2022-08-01T02:18:21;1.73;;;0.90;;
57820;SDS011;43649;49.474;8.466;2022-08-01T02:20:48;3.58;;;1.60;;
57820;SDS011;43649;49.474;8.466;2022-08-01T02:23:15;1.52;;;1.00;;
57820;SDS011;43649;49.474;8.466;2022-08-01T02:25:42;3.15;;;1.20;;
57820;SDS011;43649;49.474;8.466;2022-08-01T02:28:13;1.20;;;1.10;;
57820;SDS011;43649;49.474;8.466;2022-08-01T02:30:43;3.13;;;1.17;;
57820;SDS011;43649;49.474;8.466;2022-08-01T02:33:12;1.67;;;0.90;;
57820;SDS011;43649;49.474;8.466;2022-08-01T02:35:43;3.70;;;1.25;;
57820;SDS011;43649;49.474;8.466;2022-08-01T02:38:13;2.65;;;1.02;;
57820;SDS011;43649;49.474;8.466;2022-08-01T02:40:40;3.88;;;1.05;;
57820;SDS011;43649;49.474;8.466;2022-08-01T02:43:07;6.55;;;1.48;;
57820;SDS011;43649;49.474;8.466;2022-08-01T02:45:35;2.55;;;0.95;;
57820;SDS011;43649;49.474;8.466;2022-08-01T02:48:06;7.28;;;1.60;;
57820;SDS011;43649;49.474;8.466;2022-08-01T02:50:34;2.50;;;0.93;;
57820;SDS011;43649;49.474;8.466;2022-08-01T02:53:01;3.55;;;1.10;;
57820;SDS011;43649;49.474;8.466;2022-08-01T02:55:28;3.35;;;1.23;;
57820;SDS011;43649;49.474;8.466;2022-08-01T02:57:57;5.35;;;1.20;;
57820;SDS011;43649;49.474;8.466;2022-08-01T03:00:25;0.75;;;0.75;;
57820;SDS011;43649;49.474;8.466;2022-08-01T03:02:51;1.45;;;0.80;;
57820;SDS011;43649;49.474;8.466;2022-08-01T03:05:18;5.13;;;0.75;;
57820;SDS011;43649;49.474;8.466;2022-08-01T03:07:45;0.95;;;0.93;;
57820;SDS011;43649;49.474;8.466;2022-08-01T03:10:11;2.28;;;0.98;;
57820;SDS011;43649;49.474;8.466;2022-08-01T03:12:39;1.10;;;0.77;;
57820;SDS011;43649;49.474;8.466;2022-08-01T03:15:06;1.20;;;1.10;;
57820;SDS011;43649;49.474;8.466;2022-08-01T03:17:34;1.42;;;1.05;;
57820;SDS011;43649;49.474;8.466;2022-08-01T03:20:03;1.88;;;0.80;;
57820;SDS011;43649;49.474;8.466;2022-08-01T03:22:29;0.82;;;0.82;;
57820;SDS011;43649;49.474;8.466;2022-08-01T03:24:58;2.25;;;1.30;;
57820;SDS011;43649;49.474;8.466;2022-08-01T03:27:25;0.82;;;0.82;;
57820;SDS011;43649;49.474;8.466;2022-08-01T03:29:54;1.05;;;1.05;;
57820;SDS011;43649;49.474;8.466;2022-08-01T03:32:22;3.13;;;1.00;;
57820;SDS011;43649;49.474;8.466;2022-08-01T03:34:48;1.50;;;1.35;;
57820;SDS011;43649;49.474;8.466;2022-08-01T03:37:14;6.45;;;1.20;;
57820;SDS011;43649;49.474;8.466;2022-08-01T03:39:46;0.80;;;0.80;;
57820;SDS011;43649;49.474;8.466;2022-08-01T03:42:14;5.50;;;1.20;;
57820;SDS011;43649;49.474;8.466;2022-08-01T03:44:44;3.08;;;1.27;;
57820;SDS011;43649;49.474;8.466;2022-08-01T03:47:21;3.17;;;1.13;;
57820;SDS011;43649;49.474;8.466;2022-08-01T03:49:50;2.88;;;0.90;;
57820;SDS011;43649;49.474;8.466;2022-08-01T03:52:18;2.88;;;1.20;;
57820;SDS011;43649;49.474;8.466;2022-08-01T03:54:45;7.32;;;1.55;;
57820;SDS011;43649;49.474;8.466;2022-08-01T03:57:14;2.47;;;1.05;;
57820;SDS011;43649;49.474;8.466;2022-08-01T03:59:40;1.98;;;1.02;;
57820;SDS011;43649;49.474;8.466;2022-08-01T04:02:07;4.20;;;1.40;;
57820;SDS011;43649;49.474;8.466;2022-08-01T04:04:34;1.52;;;1.20;;
57820;SDS011;43649;49.474;8.466;2022-08-01T04:07:00;2.00;;;1.15;;
57820;SDS011;43649;49.474;8.466;2022-08-01T04:09:26;2.33;;;1.20;;
57820;SDS011;43649;49.474;8.466;2022-08-01T04:11:51;2.17;;;1.10;;
57820;SDS011;43649;49.474;8.466;2022-08-01T04:14:17;4.10;;;1.77;;
57820;SDS011;43649;49.474;8.466;2022-08-01T04:16:42;2.70;;;1.42;;
57820;SDS011;43649;49.474;8.466;2022-08-01T04:19:08;4.63;;;1.60;;
57820;SDS011;43649;49.474;8.466;2022-08-01T04:21:35;3.70;;;1.20;;
57820;SDS011;43649;49.474;8.466;2022-08-01T04:24:04;2.75;;;1.48;;
57820;SDS011;43649;49.474;8.466;2022-08-01T04:26:34;2.08;;;1.83;;
57820;SDS011;43649;49.474;8.466;2022-08-01T04:29:02;5.80;;;1.70;;
57820;SDS011;43649;49.474;8.466;2022-08-01T04:31:29;2.25;;;0.75;;
57820;SDS011;43649;49.474;8.466;2022-08-01T04:33:56;2.70;;;1.40;;
57820;SDS011;43649;49.474;8.466;2022-08-01T04:36:23;3.65;;;1.35;;
57820;SDS011;43649;49.474;8.466;2022-08-01T04:38:52;4.97;;;1.85;;
57820;SDS011;43649;49.474;8.466;2022-08-01T04:43:50;3.85;;;1.60;;
57820;SDS011;43649;49.474;8.466;2022-08-01T04:46:19;3.70;;;1.27;;
57820;SDS011;43649;49.474;8.466;2022-08-01T04:48:45;4.88;;;1.73;;
57820;SDS011;43649;49.474;8.466;2022-08-01T04:51:11;7.40;;;2.15;;
57820;SDS011;43649;49.474;8.466;2022-08-01T04:53:37;7.10;;;1.73;;
57820;SDS011;43649;49.474;8.466;2022-08-01T04:56:04;9.18;;;1.85;;
57820;SDS011;43649;49.474;8.466;2022-08-01T04:58:35;3.30;;;1.73;;
57820;SDS011;43649;49.474;8.466;2022-08-01T05:01:00;1.33;;;1.20;;
57820;SDS011;43649;49.474;8.466;2022-08-01T05:03:26;1.17;;;1.00;;
57820;SDS011;43649;49.474;8.466;2022-08-01T05:05:51;3.80;;;1.73;;
57820;SDS011;43649;49.474;8.466;2022-08-01T05:08:17;1.05;;;1.05;;
57820;SDS011;43649;49.474;8.466;2022-08-01T05:10:42;5.68;;;1.55;;
57820;SDS011;43649;49.474;8.466;2022-08-01T05:13:09;4.60;;;1.55;;
57820;SDS011;43649;49.474;8.466;2022-08-01T05:15:35;3.72;;;1.67;;
57820;SDS011;43649;49.474;8.466;2022-08-01T05:18:00;2.78;;;1.00;;
57820;SDS011;43649;49.474;8.466;2022-08-01T05:20:26;1.65;;;1.25;;
57820;SDS011;43649;49.474;8.466;2022-08-01T05:22:51;5.18;;;1.33;;
57820;SDS011;43649;49.474;8.466;2022-08-01T05:25:17;3.03;;;1.45;;
57820;SDS011;43649;49.474;8.466;2022-08-01T05:27:45;9.02;;;1.55;;
57820;SDS011;43649;49.474;8.466;2022-08-01T05:30:12;1.98;;;1.10;;
57820;SDS011;43649;49.474;8.466;2022-08-01T05:32:37;5.05;;;1.30;;
57820;SDS011;43649;49.474;8.466;2022-08-01T05:35:03;3.35;;;1.42;;
57820;SDS011;43649;49.474;8.466;2022-08-01T05:37:30;8.10;;;1.63;;
57820;SDS011;43649;49.474;8.466;2022-08-01T05:39:55;6.05;;;1.25;;
57820;SDS011;43649;49.474;8.466;2022-08-01T05:42:21;12.60;;;2.08;;
57820;SDS011;43649;49.474;8.466;2022-08-01T05:44:47;12.45;;;1.77;;
57820;SDS011;43649;49.474;8.466;2022-08-01T05:47:13;4.88;;;1.42;;
57820;SDS011;43649;49.474;8.466;2022-08-01T05:49:39;8.65;;;1.80;;
57820;SDS011;43649;49.474;8.466;2022-08-01T05:52:04;3.17;;;1.15;;
57820;SDS011;43649;49.474;8.466;2022-08-01T05:54:30;8.52;;;1.48;;
57820;SDS011;43649;49.474;8.466;2022-08-01T05:56:56;5.68;;;1.60;;
57820;SDS011;43649;49.474;8.466;2022-08-01T05:59:21;3.58;;;1.35;;
57820;SDS011;43649;49.474;8.466;2022-08-01T06:01:46;5.50;;;1.30;;
57820;SDS011;43649;49.474;8.466;2022-08-01T06:04:13;12.63;;;1.45;;
57820;SDS011;43649;49.474;8.466;2022-08-01T06:06:39;3.28;;;1.27;;
57820;SDS011;43649;49.474;8.466;2022-08-01T06:09:04;6.13;;;1.48;;
57820;SDS011;43649;49.474;8.466;2022-08-01T06:11:29;8.80;;;1.73;;
57820;SDS011;43649;49.474;8.466;2022-08-01T06:13:55;6.55;;;1.27;;
57820;SDS011;43649;49.474;8.466;2022-08-01T06:16:20;4.50;;;1.40;;
57820;SDS011;43649;49.474;8.466;2022-08-01T06:18:46;7.82;;;1.75;;
57820;SDS011;43649;49.474;8.466;2022-08-01T06:21:13;13.95;;;2.78;;
57820;SDS011;43649;49.474;8.466;2022-08-01T06:23:38;6.75;;;1.30;;
57820;SDS011;43649;49.474;8.466;2022-08-01T06:26:03;5.05;;;1.25;;
57820;SDS011;43649;49.474;8.466;2022-08-01T06:28:29;7.05;;;1.05;;
57820;SDS011;43649;49.474;8.466;2022-08-01T06:30:54;10.75;;;2.22;;
57820;SDS011;43649;49.474;8.466;2022-08-01T06:33:20;3.58;;;1.00;;
57820;SDS011;43649;49.474;8.466;2022-08-01T06:35:46;6.05;;;1.35;;
57820;SDS011;43649;49.474;8.466;2022-08-01T06:38:13;9.35;;;1.95;;
57820;SDS011;43649;49.474;8.466;2022-08-01T06:40:38;7.93;;;1.30;;
57820;SDS011;43649;49.474;8.466;2022-08-01T06:43:04;12.13;;;2.03;;
57820;SDS011;43649;49.474;8.466;2022-08-01T06:45:29;8.43;;;1.75;;
57820;SDS011;43649;49.474;8.466;2022-08-01T06:47:55;8.88;;;1.90;;
57820;SDS011;43649;49.474;8.466;2022-08-01T06:50:20;10.50;;;2.00;;
57820;SDS011;43649;49.474;8.466;2022-08-01T06:52:45;9.63;;;2.38;;
57820;SDS011;43649;49.474;8.466;2022-08-01T06:55:13;10.75;;;2.05;;
57820;SDS011;43649;49.474;8.466;2022-08-01T06:57:44;11.20;;;1.85;;
57820;SDS011;43649;49.474;8.466;2022-08-01T07:00:11;13.77;;;2.92;;
57820;SDS011;43649;49.474;8.466;2022-08-01T07:02:37;8.75;;;2.30;;
57820;SDS011;43649;49.474;8.466;2022-08-01T07:05:03;12.60;;;2.85;;
57820;SDS011;43649;49.474;8.466;2022-08-01T07:07:29;13.02;;;3.00;;
57820;SDS011;43649;49.474;8.466;2022-08-01T07:09:54;6.97;;;3.05;;
57820;SDS011;43649;49.474;8.466;2022-08-01T07:12:21;11.95;;;4.25;;
57820;SDS011;43649;49.474;8.466;2022-08-01T07:14:47;19.63;;;6.28;;
57820;SDS011;43649;49.474;8.466;2022-08-01T07:17:12;25.90;;;9.48;;
57820;SDS011;43649;49.474;8.466;2022-08-01T07:19:38;20.02;;;10.23;;
57820;SDS011;43649;49.474;8.466;2022-08-01T07:22:03;21.00;;;9.40;;
57820;SDS011;43649;49.474;8.466;2022-08-01T07:24:29;20.23;;;9.60;;
57820;SDS011;43649;49.474;8.466;2022-08-01T07:26:54;12.45;;;6.55;;
57820;SDS011;43649;49.474;8.466;2022-08-01T07:29:22;21.73;;;8.65;;
57820;SDS011;43649;49.474;8.466;2022-08-01T07:31:48;19.00;;;8.20;;
57820;SDS011;43649;49.474;8.466;2022-08-01T07:34:14;20.05;;;7.72;;
57820;SDS011;43649;49.474;8.466;2022-08-01T07:36:39;19.20;;;7.75;;
57820;SDS011;43649;49.474;8.466;2022-08-01T07:39:04;15.85;;;5.75;;
57820;SDS011;43649;49.474;8.466;2022-08-01T07:41:30;13.13;;;3.85;;
57820;SDS011;43649;49.474;8.466;2022-08-01T07:43:55;20.13;;;5.03;;
57820;SDS011;43649;49.474;8.466;2022-08-01T07:46:22;23.65;;;7.07;;
57820;SDS011;43649;49.474;8.466;2022-08-01T07:48:48;18.15;;;5.03;;
57820;SDS011;43649;49.474;8.466;2022-08-01T07:51:13;24.52;;;5.07;;
57820;SDS011;43649;49.474;8.466;2022-08-01T07:53:39;9.40;;;3.10;;
57820;SDS011;43649;49.474;8.466;2022-08-01T07:56:04;17.25;;;3.55;;
57820;SDS011;43649;49.474;8.466;2022-08-01T07:58:30;13.50;;;3.03;;
57820;SDS011;43649;49.474;8.466;2022-08-01T08:00:55;17.80;;;2.90;;
57820;SDS011;43649;49.474;8.466;2022-08-01T08:03:22;13.45;;;1.90;;
57820;SDS011;43649;49.474;8.466;2022-08-01T08:05:47;9.82;;;2.03;;
57820;SDS011;43649;49.474;8.466;2022-08-01T08:08:13;11.13;;;2.63;;
57820;SDS011;43649;49.474;8.466;2022-08-01T08:10:38;16.13;;;3.88;;
57820;SDS011;43649;49.474;8.466;2022-08-01T08:13:18;13.18;;;2.05;;
57820;SDS011;43649;49.474;8.466;2022-08-01T08:15:53;9.75;;;2.65;;
57820;SDS011;43649;49.474;8.466;2022-08-01T08:18:19;18.83;;;2.15;;
57820;SDS011;43649;49.474;8.466;2022-08-01T08:20:49;15.02;;;2.58;;
57820;SDS011;43649;49.474;8.466;2022-08-01T08:23:15;6.95;;;1.55;;
57820;SDS011;43649;49.474;8.466;2022-08-01T08:25:41;7.57;;;1.80;;
57820;SDS011;43649;49.474;8.466;2022-08-01T08:28:06;9.50;;;1.80;;
57820;SDS011;43649;49.474;8.466;2022-08-01T08:30:32;18.92;;;3.35;;
57820;SDS011;43649;49.474;8.466;2022-08-01T08:32:57;10.90;;;2.72;;
57820;SDS011;43649;49.474;8.466;2022-08-01T08:35:22;7.45;;;1.88;;
57820;SDS011;43649;49.474;8.466;2022-08-01T08:37:49;12.90;;;2.78;;
57820;SDS011;43649;49.474;8.466;2022-08-01T08:40:15;8.63;;;1.92;;
57820;SDS011;43649;49.474;8.466;2022-08-01T08:42:40;5.78;;;1.42;;
57820;SDS011;43649;49.474;8.466;2022-08-01T08:45:06;18.48;;;4.72;;
57820;SDS011;43649;49.474;8.466;2022-08-01T08:47:33;11.48;;;3.75;;
57820;SDS011;43649;49.474;8.466;2022-08-01T08:50:00;12.77;;;2.10;;
57820;SDS011;43649;49.474;8.466;2022-08-01T08:52:26;9.85;;;2.38;;
57820;SDS011;43649;49.474;8.466;2022-08-01T08:54:54;16.02;;;5.63;;
57820;SDS011;43649;49.474;8.466;2022-08-01T08:57:21;10.77;;;3.25;;
57820;SDS011;43649;49.474;8.466;2022-08-01T08:59:47;19.45;;;4.68;;
57820;SDS011;43649;49.474;8.466;2022-08-01T09:02:12;14.85;;;3.63;;
57820;SDS011;43649;49.474;8.466;2022-08-01T09:04:38;20.02;;;5.85;;
57820;SDS011;43649;49.474;8.466;2022-08-01T09:07:04;11.73;;;6.65;;
57820;SDS011;43649;49.474;8.466;2022-08-01T09:09:30;22.70;;;9.43;;
57820;SDS011;43649;49.474;8.466;2022-08-01T09:11:57;29.02;;;7.82;;
57820;SDS011;43649;49.474;8.466;2022-08-01T09:14:23;29.25;;;12.55;;
57820;SDS011;43649;49.474;8.466;2022-08-01T09:16:58;25.50;;;10.70;;
57820;SDS011;43649;49.474;8.466;2022-08-01T09:22:13;17.33;;;6.63;;
57820;SDS011;43649;49.474;8.466;2022-08-01T09:22:57;27.10;;;14.45;;
57820;SDS011;43649;49.474;8.466;2022-08-01T09:25:22;31.58;;;11.98;;
57820;SDS011;43649;49.474;8.466;2022-08-01T09:27:49;21.50;;;9.95;;
57820;SDS011;43649;49.474;8.466;2022-08-01T09:30:27;18.92;;;8.00;;
57820;SDS011;43649;49.474;8.466;2022-08-01T09:32:53;55.25;;;32.95;;
57820;SDS011;43649;49.474;8.466;2022-08-01T09:35:21;46.28;;;32.20;;
57820;SDS011;43649;49.474;8.466;2022-08-01T09:37:48;54.25;;;40.30;;
57820;SDS011;43649;49.474;8.466;2022-08-01T09:40:13;40.05;;;25.83;;
57820;SDS011;43649;49.474;8.466;2022-08-01T09:42:38;69.47;;;47.78;;
57820;SDS011;43649;49.474;8.466;2022-08-01T09:45:06;33.25;;;16.13;;
57820;SDS011;43649;49.474;8.466;2022-08-01T09:47:36;71.40;;;58.47;;
57820;SDS011;43649;49.474;8.466;2022-08-01T09:50:03;162.75;;;111.28;;
57820;SDS011;43649;49.474;8.466;2022-08-01T09:52:29;280.88;;;161.73;;
57820;SDS011;43649;49.474;8.466;2022-08-01T09:54:55;29.98;;;15.10;;
57820;SDS011;43649;49.474;8.466;2022-08-01T09:57:23;304.58;;;173.57;;
57820;SDS011;43649;49.474;8.466;2022-08-01T09:59:49;361.83;;;199.43;;
57820;SDS011;43649;49.474;8.466;2022-08-01T10:02:27;330.50;;;174.88;;
57820;SDS011;43649;49.474;8.466;2022-08-01T10:04:55;88.93;;;42.92;;
57820;SDS011;43649;49.474;8.466;2022-08-01T10:07:20;3.50;;;1.20;;
57820;SDS011;43649;49.474;8.466;2022-08-01T10:09:46;32.03;;;23.38;;
57820;SDS011;43649;49.474;8.466;2022-08-01T10:12:12;42.00;;;22.10;;
57820;SDS011;43649;49.474;8.466;2022-08-01T10:14:40;22.95;;;6.13;;
57820;SDS011;43649;49.474;8.466;2022-08-01T10:17:09;24.00;;;8.85;;
57820;SDS011;43649;49.474;8.466;2022-08-01T10:19:56;19.17;;;4.97;;
57820;SDS011;43649;49.474;8.466;2022-08-01T10:23:17;18.13;;;5.38;;
57820;SDS011;43649;49.474;8.466;2022-08-01T10:25:49;34.17;;;15.65;;
57820;SDS011;43649;49.474;8.466;2022-08-01T10:28:18;43.05;;;28.48;;
57820;SDS011;43649;49.474;8.466;2022-08-01T10:30:45;99.50;;;74.05;;
57820;SDS011;43649;49.474;8.466;2022-08-01T10:36:20;116.50;;;84.43;;
57820;SDS011;43649;49.474;8.466;2022-08-01T10:38:46;189.95;;;117.35;;
57820;SDS011;43649;49.474;8.466;2022-08-01T10:41:12;249.25;;;146.13;;
57820;SDS011;43649;49.474;8.466;2022-08-01T10:43:43;394.17;;;211.93;;
57820;SDS011;43649;49.474;8.466;2022-08-01T10:46:09;396.30;;;213.05;;
57820;SDS011;43649;49.474;8.466;2022-08-01T10:52:27;385.40;;;209.35;;
57820;SDS011;43649;49.474;8.466;2022-08-01T10:55:00;482.15;;;262.08;;
57820;SDS011;43649;49.474;8.466;2022-08-01T11:00:20;475.95;;;253.48;;
57820;SDS011;43649;49.474;8.466;2022-08-01T11:02:56;503.83;;;270.65;;
57820;SDS011;43649;49.474;8.466;2022-08-01T11:05:23;603.35;;;326.50;;
57820;SDS011;43649;49.474;8.466;2022-08-01T11:07:52;692.00;;;376.80;;
57820;SDS011;43649;49.474;8.466;2022-08-01T11:10:21;793.80;;;435.67;;
57820;SDS011;43649;49.474;8.466;2022-08-01T11:12:56;640.25;;;349.77;;
57820;SDS011;43649;49.474;8.466;2022-08-01T11:18:49;621.00;;;346.77;;
57820;SDS011;43649;49.474;8.466;2022-08-01T11:21:15;56.28;;;27.27;;
57820;SDS011;43649;49.474;8.466;2022-08-01T11:23:50;35.67;;;16.38;;
57820;SDS011;43649;49.474;8.466;2022-08-01T11:26:16;1.58;;;1.15;;
57820;SDS011;43649;49.474;8.466;2022-08-01T11:28:42;1.30;;;1.17;;
57820;SDS011;43649;49.474;8.466;2022-08-01T11:31:25;3.97;;;0.95;;
57820;SDS011;43649;49.474;8.466;2022-08-01T11:33:52;3.67;;;1.10;;
57820;SDS011;43649;49.474;8.466;2022-08-01T11:36:18;0.77;;;0.75;;
57820;SDS011;43649;49.474;8.466;2022-08-01T11:39:12;1.42;;;1.00;;
57820;SDS011;43649;49.474;8.466;2022-08-01T11:41:44;0.68;;;0.68;;
57820;SDS011;43649;49.474;8.466;2022-08-01T11:44:13;2.70;;;1.30;;
57820;SDS011;43649;49.474;8.466;2022-08-01T11:47:02;2.40;;;0.90;;
57820;SDS011;43649;49.474;8.466;2022-08-01T11:49:30;4.32;;;1.40;;
57820;SDS011;43649;49.474;8.466;2022-08-01T11:52:30;6.45;;;1.38;;
57820;SDS011;43649;49.474;8.466;2022-08-01T11:55:06;1.33;;;0.80;;
57820;SDS011;43649;49.474;8.466;2022-08-01T11:57:41;4.85;;;0.95;;
57820;SDS011;43649;49.474;8.466;2022-08-01T12:00:17;6.50;;;1.52;;
57820;SDS011;43649;49.474;8.466;2022-08-01T12:03:16;2.58;;;1.20;;
57820;SDS011;43649;49.474;8.466;2022-08-01T12:05:43;5.05;;;1.25;;
57820;SDS011;43649;49.474;8.466;2022-08-01T12:08:09;6.35;;;1.65;;
57820;SDS011;43649;49.474;8.466;2022-08-01T12:10:35;8.38;;;1.42;;
57820;SDS011;43649;49.474;8.466;2022-08-01T12:13:04;6.18;;;1.42;;
57820;SDS011;43649;49.474;8.466;2022-08-01T12:15:32;10.13;;;1.95;;
57820;SDS011;43649;49.474;8.466;2022-08-01T12:17:59;13.88;;;2.20;;
57820;SDS011;43649;49.474;8.466;2022-08-01T12:20:26;6.47;;;1.52;;
57820;SDS011;43649;49.474;8.466;2022-08-01T12:22:53;8.98;;;1.45;;
57820;SDS011;43649;49.474;8.466;2022-08-01T12:25:19;4.65;;;1.20;;
57820;SDS011;43649;49.474;8.466;2022-08-01T12:27:46;6.88;;;1.33;;
57820;SDS011;43649;49.474;8.466;2022-08-01T12:30:13;5.60;;;1.27;;
57820;SDS011;43649;49.474;8.466;2022-08-01T12:32:40;5.15;;;1.55;;
57820;SDS011;43649;49.474;8.466;2022-08-01T12:35:07;4.38;;;1.23;;
57820;SDS011;43649;49.474;8.466;2022-08-01T12:37:35;1.27;;;0.90;;
57820;SDS011;43649;49.474;8.466;2022-08-01T12:40:01;2.60;;;1.20;;
57820;SDS011;43649;49.474;8.466;2022-08-01T12:42:35;4.72;;;1.33;;
57820;SDS011;43649;49.474;8.466;2022-08-01T12:45:03;3.20;;;1.10;;
57820;SDS011;43649;49.474;8.466;2022-08-01T12:47:29;4.75;;;0.95;;
57820;SDS011;43649;49.474;8.466;2022-08-01T12:49:54;8.38;;;1.50;;
57820;SDS011;43649;49.474;8.466;2022-08-01T12:52:20;7.95;;;1.30;;
57820;SDS011;43649;49.474;8.466;2022-08-01T12:55:02;6.28;;;1.30;;
57820;SDS011;43649;49.474;8.466;2022-08-01T12:57:39;8.27;;;1.63;;
57820;SDS011;43649;49.474;8.466;2022-08-01T13:00:10;5.72;;;1.15;;
57820;SDS011;43649;49.474;8.466;2022-08-01T13:02:38;9.20;;;1.40;;
57820;SDS011;43649;49.474;8.466;2022-08-01T13:05:04;5.60;;;1.05;;
57820;SDS011;43649;49.474;8.466;2022-08-01T13:07:34;17.95;;;2.83;;
57820;SDS011;43649;49.474;8.466;2022-08-01T13:10:13;4.85;;;1.20;;
57820;SDS011;43649;49.474;8.466;2022-08-01T13:12:50;6.30;;;1.10;;
57820;SDS011;43649;49.474;8.466;2022-08-01T13:15:19;7.90;;;1.38;;
57820;SDS011;43649;49.474;8.466;2022-08-01T13:17:53;4.38;;;1.13;;
57820;SDS011;43649;49.474;8.466;2022-08-01T13:20:31;11.80;;;1.80;;
57820;SDS011;43649;49.474;8.466;2022-08-01T13:26:45;8.00;;;1.48;;
57820;SDS011;43649;49.474;8.466;2022-08-01T13:29:13;6.22;;;1.23;;
57820;SDS011;43649;49.474;8.466;2022-08-01T13:31:42;4.55;;;1.13;;
57820;SDS011;43649;49.474;8.466;2022-08-01T13:34:08;14.15;;;1.67;;
57820;SDS011;43649;49.474;8.466;2022-08-01T13:36:34;5.80;;;1.05;;
57820;SDS011;43649;49.474;8.466;2022-08-01T13:39:05;12.15;;;1.75;;
57820;SDS011;43649;49.474;8.466;2022-08-01T13:41:33;15.80;;;2.15;;
57820;SDS011;43649;49.474;8.466;2022-08-01T13:43:58;8.35;;;1.25;;
57820;SDS011;43649;49.474;8.466;2022-08-01T13:46:24;11.32;;;1.65;;
57820;SDS011;43649;49.474;8.466;2022-08-01T13:48:51;2.80;;;0.82;;
57820;SDS011;43649;49.474;8.466;2022-08-01T13:51:16;24.50;;;3.38;;
57820;SDS011;43649;49.474;8.466;2022-08-01T13:53:42;7.95;;;1.40;;
57820;SDS011;43649;49.474;8.466;2022-08-01T13:56:07;5.15;;;1.05;;
57820;SDS011;43649;49.474;8.466;2022-08-01T13:58:33;10.82;;;1.67;;
57820;SDS011;43649;49.474;8.466;2022-08-01T14:00:58;13.38;;;2.33;;
57820;SDS011;43649;49.474;8.466;2022-08-01T14:03:24;11.15;;;2.42;;
57820;SDS011;43649;49.474;8.466;2022-08-01T14:05:51;11.63;;;2.08;;
57820;SDS011;43649;49.474;8.466;2022-08-01T14:08:16;14.95;;;3.47;;
57820;SDS011;43649;49.474;8.466;2022-08-01T14:10:42;13.32;;;2.47;;
57820;SDS011;43649;49.474;8.466;2022-08-01T14:13:09;33.72;;;15.45;;
57820;SDS011;43649;49.474;8.466;2022-08-01T14:15:38;37.42;;;20.15;;
57820;SDS011;43649;49.474;8.466;2022-08-01T14:27:02;107.70;;;34.00;;
57820;SDS011;43649;49.474;8.466;2022-08-01T15:10:22;1.08;;;0.65;;
57820;SDS011;43649;49.474;8.466;2022-08-01T15:12:48;1.15;;;0.68;;
57820;SDS011;43649;49.474;8.466;2022-08-01T15:15:13;2.60;;;0.60;;
57820;SDS011;43649;49.474;8.466;2022-08-01T15:17:39;1.33;;;0.73;;
57820;SDS011;43649;49.474;8.466;2022-08-01T15:20:07;0.70;;;0.70;;
57820;SDS011;43649;49.474;8.466;2022-08-01T15:22:33;1.17;;;0.52;;
57820;SDS011;43649;49.474;8.466;2022-08-01T15:25:02;0.77;;;0.77;;
57820;SDS011;43649;49.474;8.466;2022-08-01T15:27:29;0.60;;;0.60;;
57820;SDS011;43649;49.474;8.466;2022-08-01T15:29:58;0.57;;;0.57;;
57820;SDS011;43649;49.474;8.466;2022-08-01T15:32:23;0.55;;;0.55;;
57820;SDS011;43649;49.474;8.466;2022-08-01T15:34:49;0.50;;;0.50;;
57820;SDS011;43649;49.474;8.466;2022-08-01T15:37:14;0.77;;;0.70;;
57820;SDS011;43649;49.474;8.466;2022-08-01T15:39:40;2.22;;;0.60;;
57820;SDS011;43649;49.474;8.466;2022-08-01T15:42:08;4.65;;;0.50;;
57820;SDS011;43649;49.474;8.466;2022-08-01T15:44:36;6.40;;;0.98;;
57820;SDS011;43649;49.474;8.466;2022-08-01T15:47:02;1.17;;;0.70;;
57820;SDS011;43649;49.474;8.466;2022-08-01T15:49:28;4.20;;;0.85;;
57820;SDS011;43649;49.474;8.466;2022-08-01T15:51:54;0.60;;;0.60;;
57820;SDS011;43649;49.474;8.466;2022-08-01T15:54:20;1.92;;;0.50;;